<?xml version="1.0" encoding="UTF-8" standalone="no" ?>
<gpx xmlns="http://www.topografix.com/GPX/1/1" xmlns:xsi="http://www.w3.org/2001/XMLSchema-instance" xsi:schemaLocation="http://www.topografix.com/GPX/1/1 http://www.topografix.com/GPX/1/1/gpx.xsd" version="1.1" creator="VisuGPX - https://www.visugpx.com">
  <metadata>
    <name>À la rencontre des vers de vase du Crétacé à Sainte-Anne du Castellet </name>
    <desc><![CDATA[
]]></desc>
  </metadata>
  <wpt lat="43.23145" lon="5.75271">
    <ele>181</ele>
    <name><![CDATA[Parking sur esplanade en terre]]></name>
  </wpt>
  <wpt lat="43.23343" lon="5.75198">
    <ele>191</ele>
    <name><![CDATA[Vers le four à cade]]></name>
  </wpt>
  <wpt lat="43.23577" lon="5.75247">
    <ele>200</ele>
    <name><![CDATA[Font de Mars]]></name>
  </wpt>
  <wpt lat="43.23797" lon="5.7531">
    <ele>210</ele>
    <name><![CDATA[Vers le four à poix puis le four à chaux]]></name>
  </wpt>
  <wpt lat="43.24039" lon="5.75112">
    <ele>230</ele>
    <name><![CDATA[Calade]]></name>
  </wpt>
  <wpt lat="43.24389" lon="5.73632">
    <ele>356</ele>
    <name><![CDATA[Sentier vers les abris sous roche]]></name>
  </wpt>
  <wpt lat="43.24231" lon="5.73681">
    <ele>326</ele>
    <name><![CDATA[Vers le haut de la colline]]></name>
  </wpt>
  <wpt lat="43.24545" lon="5.72477">
    <ele>421</ele>
    <name><![CDATA[Carrefour - prendre à gauche en montant]]></name>
  </wpt>
  <wpt lat="43.24109" lon="5.72417">
    <ele>409</ele>
    <name><![CDATA[Carrefour - prendre à gauche sur la piste]]></name>
  </wpt>
  <wpt lat="43.24037" lon="5.7278">
    <ele>401</ele>
    <name><![CDATA[Chemin de terre à droite]]></name>
  </wpt>
  <wpt lat="43.24004" lon="5.72816">
    <ele>403</ele>
    <name><![CDATA[Les ruines du Camp de Penon]]></name>
  </wpt>
  <wpt lat="43.2288" lon="5.74241">
    <ele>211</ele>
    <name><![CDATA[Grande piste]]></name>
  </wpt>
  <wpt lat="43.23007" lon="5.74747">
    <ele>200</ele>
    <name><![CDATA[Sentier à droite ]]></name>
  </wpt>
  <wpt lat="43.22988" lon="5.74928">
    <ele>197</ele>
    <name><![CDATA[Prendre vers l'ouest pour le pont du Cannet]]></name>
  </wpt>
  <wpt lat="43.22896" lon="5.7476">
    <ele>190</ele>
    <name><![CDATA[Pont romain]]></name>
  </wpt>
  <wpt lat="43.23145" lon="5.75273">
    <ele>181</ele>
    <name><![CDATA[Parking sur esplanade en terre]]></name>
  </wpt>
  <trk>
    <name><![CDATA[À la rencontre des vers de vase du Crétacé à Sainte-Anne du Castellet]]></name>
    <trkseg>
      <trkpt lat="43.23145" lon="5.75271">
        <ele>181</ele>
        <time>2020-03-11T23:50:14+01:00</time>
      </trkpt>
      <trkpt lat="43.23182" lon="5.75259">
        <ele>187</ele>
        <time>2020-03-11T23:50:19+01:00</time>
      </trkpt>
      <trkpt lat="43.23229" lon="5.75261">
        <ele>190</ele>
        <time>2020-03-11T23:50:24+01:00</time>
      </trkpt>
      <trkpt lat="43.23232" lon="5.75239">
        <ele>190</ele>
        <time>2020-03-11T23:50:29+01:00</time>
      </trkpt>
      <trkpt lat="43.23282" lon="5.75231">
        <ele>190</ele>
        <time>2020-03-11T23:50:34+01:00</time>
      </trkpt>
      <trkpt lat="43.23309" lon="5.75218">
        <ele>190</ele>
        <time>2020-03-11T23:50:39+01:00</time>
      </trkpt>
      <trkpt lat="43.23343" lon="5.75198">
        <ele>191</ele>
        <time>2020-03-11T23:50:44+01:00</time>
      </trkpt>
      <trkpt lat="43.23359" lon="5.75209">
        <ele>191</ele>
        <time>2020-03-11T23:50:49+01:00</time>
      </trkpt>
      <trkpt lat="43.23371" lon="5.75237">
        <ele>194</ele>
        <time>2020-03-11T23:50:54+01:00</time>
      </trkpt>
      <trkpt lat="43.23364" lon="5.75201">
        <ele>190</ele>
        <time>2020-03-11T23:50:59+01:00</time>
      </trkpt>
      <trkpt lat="43.23345" lon="5.75188">
        <ele>192</ele>
        <time>2020-03-11T23:51:04+01:00</time>
      </trkpt>
      <trkpt lat="43.23407" lon="5.75153">
        <ele>193</ele>
        <time>2020-03-11T23:51:09+01:00</time>
      </trkpt>
      <trkpt lat="43.23434" lon="5.75147">
        <ele>193</ele>
        <time>2020-03-11T23:51:14+01:00</time>
      </trkpt>
      <trkpt lat="43.23473" lon="5.75186">
        <ele>198</ele>
        <time>2020-03-11T23:51:19+01:00</time>
      </trkpt>
      <trkpt lat="43.23499" lon="5.75209">
        <ele>200</ele>
        <time>2020-03-11T23:51:24+01:00</time>
      </trkpt>
      <trkpt lat="43.23579" lon="5.75227">
        <ele>200</ele>
        <time>2020-03-11T23:51:29+01:00</time>
      </trkpt>
      <trkpt lat="43.23577" lon="5.75247">
        <ele>200</ele>
        <time>2020-03-11T23:51:34+01:00</time>
      </trkpt>
      <trkpt lat="43.23584" lon="5.75226">
        <ele>200</ele>
        <time>2020-03-11T23:51:39+01:00</time>
      </trkpt>
      <trkpt lat="43.2362" lon="5.75243">
        <ele>200</ele>
        <time>2020-03-11T23:51:44+01:00</time>
      </trkpt>
      <trkpt lat="43.23667" lon="5.75226">
        <ele>201</ele>
        <time>2020-03-11T23:51:49+01:00</time>
      </trkpt>
      <trkpt lat="43.23694" lon="5.75232">
        <ele>201</ele>
        <time>2020-03-11T23:51:54+01:00</time>
      </trkpt>
      <trkpt lat="43.23711" lon="5.75249">
        <ele>201</ele>
        <time>2020-03-11T23:51:59+01:00</time>
      </trkpt>
      <trkpt lat="43.23722" lon="5.75295">
        <ele>202</ele>
        <time>2020-03-11T23:52:04+01:00</time>
      </trkpt>
      <trkpt lat="43.23761" lon="5.75312">
        <ele>206</ele>
        <time>2020-03-11T23:52:09+01:00</time>
      </trkpt>
      <trkpt lat="43.23777" lon="5.7532">
        <ele>209</ele>
        <time>2020-03-11T23:52:14+01:00</time>
      </trkpt>
      <trkpt lat="43.23797" lon="5.7531">
        <ele>210</ele>
        <time>2020-03-11T23:52:19+01:00</time>
      </trkpt>
      <trkpt lat="43.23846" lon="5.75307">
        <ele>213</ele>
        <time>2020-03-11T23:52:24+01:00</time>
      </trkpt>
      <trkpt lat="43.23871" lon="5.75299">
        <ele>216</ele>
        <time>2020-03-11T23:52:29+01:00</time>
      </trkpt>
      <trkpt lat="43.23892" lon="5.75288">
        <ele>218</ele>
        <time>2020-03-11T23:52:34+01:00</time>
      </trkpt>
      <trkpt lat="43.23919" lon="5.75292">
        <ele>221</ele>
        <time>2020-03-11T23:52:39+01:00</time>
      </trkpt>
      <trkpt lat="43.23936" lon="5.7531">
        <ele>226</ele>
        <time>2020-03-11T23:52:44+01:00</time>
      </trkpt>
      <trkpt lat="43.23949" lon="5.75325">
        <ele>229</ele>
        <time>2020-03-11T23:52:49+01:00</time>
      </trkpt>
      <trkpt lat="43.23969" lon="5.75335">
        <ele>230</ele>
        <time>2020-03-11T23:52:54+01:00</time>
      </trkpt>
      <trkpt lat="43.24014" lon="5.75365">
        <ele>238</ele>
        <time>2020-03-11T23:52:59+01:00</time>
      </trkpt>
      <trkpt lat="43.24028" lon="5.75398">
        <ele>243</ele>
        <time>2020-03-11T23:53:04+01:00</time>
      </trkpt>
      <trkpt lat="43.24088" lon="5.75393">
        <ele>248</ele>
        <time>2020-03-11T23:53:09+01:00</time>
      </trkpt>
      <trkpt lat="43.24028" lon="5.75382">
        <ele>241</ele>
        <time>2020-03-11T23:53:14+01:00</time>
      </trkpt>
      <trkpt lat="43.23982" lon="5.7534">
        <ele>231</ele>
        <time>2020-03-11T23:53:19+01:00</time>
      </trkpt>
      <trkpt lat="43.23941" lon="5.75327">
        <ele>229</ele>
        <time>2020-03-11T23:53:24+01:00</time>
      </trkpt>
      <trkpt lat="43.23919" lon="5.7529">
        <ele>221</ele>
        <time>2020-03-11T23:53:29+01:00</time>
      </trkpt>
      <trkpt lat="43.2386" lon="5.75299">
        <ele>214</ele>
        <time>2020-03-11T23:53:34+01:00</time>
      </trkpt>
      <trkpt lat="43.23814" lon="5.75299">
        <ele>210</ele>
        <time>2020-03-11T23:53:39+01:00</time>
      </trkpt>
      <trkpt lat="43.23852" lon="5.7526">
        <ele>212</ele>
        <time>2020-03-11T23:53:44+01:00</time>
      </trkpt>
      <trkpt lat="43.23875" lon="5.75234">
        <ele>213</ele>
        <time>2020-03-11T23:53:49+01:00</time>
      </trkpt>
      <trkpt lat="43.23908" lon="5.75226">
        <ele>211</ele>
        <time>2020-03-11T23:53:54+01:00</time>
      </trkpt>
      <trkpt lat="43.23928" lon="5.75207">
        <ele>216</ele>
        <time>2020-03-11T23:53:59+01:00</time>
      </trkpt>
      <trkpt lat="43.23967" lon="5.75194">
        <ele>219</ele>
        <time>2020-03-11T23:54:04+01:00</time>
      </trkpt>
      <trkpt lat="43.24013" lon="5.75166">
        <ele>223</ele>
        <time>2020-03-11T23:54:09+01:00</time>
      </trkpt>
      <trkpt lat="43.24039" lon="5.75112">
        <ele>230</ele>
        <time>2020-03-11T23:54:14+01:00</time>
      </trkpt>
      <trkpt lat="43.24053" lon="5.75091">
        <ele>232</ele>
        <time>2020-03-11T23:54:19+01:00</time>
      </trkpt>
      <trkpt lat="43.24071" lon="5.75073">
        <ele>233</ele>
        <time>2020-03-11T23:54:24+01:00</time>
      </trkpt>
      <trkpt lat="43.24088" lon="5.75066">
        <ele>233</ele>
        <time>2020-03-11T23:54:29+01:00</time>
      </trkpt>
      <trkpt lat="43.24106" lon="5.75055">
        <ele>235</ele>
        <time>2020-03-11T23:54:34+01:00</time>
      </trkpt>
      <trkpt lat="43.24121" lon="5.75038">
        <ele>238</ele>
        <time>2020-03-11T23:54:39+01:00</time>
      </trkpt>
      <trkpt lat="43.24125" lon="5.75018">
        <ele>239</ele>
        <time>2020-03-11T23:54:44+01:00</time>
      </trkpt>
      <trkpt lat="43.24133" lon="5.7501">
        <ele>240</ele>
        <time>2020-03-11T23:54:49+01:00</time>
      </trkpt>
      <trkpt lat="43.24174" lon="5.75007">
        <ele>240</ele>
        <time>2020-03-11T23:54:54+01:00</time>
      </trkpt>
      <trkpt lat="43.24192" lon="5.75003">
        <ele>240</ele>
        <time>2020-03-11T23:54:59+01:00</time>
      </trkpt>
      <trkpt lat="43.2421" lon="5.74989">
        <ele>240</ele>
        <time>2020-03-11T23:55:04+01:00</time>
      </trkpt>
      <trkpt lat="43.24232" lon="5.74979">
        <ele>240</ele>
        <time>2020-03-11T23:55:09+01:00</time>
      </trkpt>
      <trkpt lat="43.24238" lon="5.74972">
        <ele>240</ele>
        <time>2020-03-11T23:55:14+01:00</time>
      </trkpt>
      <trkpt lat="43.24244" lon="5.74951">
        <ele>240</ele>
        <time>2020-03-11T23:55:19+01:00</time>
      </trkpt>
      <trkpt lat="43.24254" lon="5.74923">
        <ele>241</ele>
        <time>2020-03-11T23:55:24+01:00</time>
      </trkpt>
      <trkpt lat="43.24264" lon="5.74908">
        <ele>243</ele>
        <time>2020-03-11T23:55:29+01:00</time>
      </trkpt>
      <trkpt lat="43.24274" lon="5.74893">
        <ele>245</ele>
        <time>2020-03-11T23:55:34+01:00</time>
      </trkpt>
      <trkpt lat="43.24292" lon="5.74886">
        <ele>247</ele>
        <time>2020-03-11T23:55:39+01:00</time>
      </trkpt>
      <trkpt lat="43.24332" lon="5.74856">
        <ele>250</ele>
        <time>2020-03-11T23:55:44+01:00</time>
      </trkpt>
      <trkpt lat="43.24362" lon="5.74831">
        <ele>250</ele>
        <time>2020-03-11T23:55:49+01:00</time>
      </trkpt>
      <trkpt lat="43.24387" lon="5.74807">
        <ele>250</ele>
        <time>2020-03-11T23:55:54+01:00</time>
      </trkpt>
      <trkpt lat="43.24407" lon="5.74771">
        <ele>250</ele>
        <time>2020-03-11T23:55:59+01:00</time>
      </trkpt>
      <trkpt lat="43.24417" lon="5.74719">
        <ele>251</ele>
        <time>2020-03-11T23:56:04+01:00</time>
      </trkpt>
      <trkpt lat="43.24411" lon="5.74695">
        <ele>253</ele>
        <time>2020-03-11T23:56:09+01:00</time>
      </trkpt>
      <trkpt lat="43.24404" lon="5.74667">
        <ele>256</ele>
        <time>2020-03-11T23:56:14+01:00</time>
      </trkpt>
      <trkpt lat="43.24412" lon="5.74608">
        <ele>257</ele>
        <time>2020-03-11T23:56:19+01:00</time>
      </trkpt>
      <trkpt lat="43.24403" lon="5.74543">
        <ele>261</ele>
        <time>2020-03-11T23:56:24+01:00</time>
      </trkpt>
      <trkpt lat="43.24393" lon="5.74496">
        <ele>262</ele>
        <time>2020-03-11T23:56:29+01:00</time>
      </trkpt>
      <trkpt lat="43.244" lon="5.74466">
        <ele>262</ele>
        <time>2020-03-11T23:56:34+01:00</time>
      </trkpt>
      <trkpt lat="43.24403" lon="5.7441">
        <ele>264</ele>
        <time>2020-03-11T23:56:39+01:00</time>
      </trkpt>
      <trkpt lat="43.24409" lon="5.74391">
        <ele>265</ele>
        <time>2020-03-11T23:56:44+01:00</time>
      </trkpt>
      <trkpt lat="43.24397" lon="5.74342">
        <ele>270</ele>
        <time>2020-03-11T23:56:49+01:00</time>
      </trkpt>
      <trkpt lat="43.24375" lon="5.74316">
        <ele>271</ele>
        <time>2020-03-11T23:56:54+01:00</time>
      </trkpt>
      <trkpt lat="43.24372" lon="5.74241">
        <ele>278</ele>
        <time>2020-03-11T23:56:59+01:00</time>
      </trkpt>
      <trkpt lat="43.24357" lon="5.74228">
        <ele>278</ele>
        <time>2020-03-11T23:57:04+01:00</time>
      </trkpt>
      <trkpt lat="43.24334" lon="5.74235">
        <ele>276</ele>
        <time>2020-03-11T23:57:09+01:00</time>
      </trkpt>
      <trkpt lat="43.24307" lon="5.74187">
        <ele>279</ele>
        <time>2020-03-11T23:57:14+01:00</time>
      </trkpt>
      <trkpt lat="43.24293" lon="5.74129">
        <ele>281</ele>
        <time>2020-03-11T23:57:19+01:00</time>
      </trkpt>
      <trkpt lat="43.24297" lon="5.74112">
        <ele>282</ele>
        <time>2020-03-11T23:57:24+01:00</time>
      </trkpt>
      <trkpt lat="43.24297" lon="5.74069">
        <ele>285</ele>
        <time>2020-03-11T23:57:29+01:00</time>
      </trkpt>
      <trkpt lat="43.2434" lon="5.74003">
        <ele>291</ele>
        <time>2020-03-11T23:57:34+01:00</time>
      </trkpt>
      <trkpt lat="43.24378" lon="5.73964">
        <ele>298</ele>
        <time>2020-03-11T23:57:39+01:00</time>
      </trkpt>
      <trkpt lat="43.24397" lon="5.73874">
        <ele>311</ele>
        <time>2020-03-11T23:57:44+01:00</time>
      </trkpt>
      <trkpt lat="43.24431" lon="5.73833">
        <ele>320</ele>
        <time>2020-03-11T23:57:49+01:00</time>
      </trkpt>
      <trkpt lat="43.24437" lon="5.73752">
        <ele>328</ele>
        <time>2020-03-11T23:57:54+01:00</time>
      </trkpt>
      <trkpt lat="43.24434" lon="5.73664">
        <ele>337</ele>
        <time>2020-03-11T23:57:59+01:00</time>
      </trkpt>
      <trkpt lat="43.24404" lon="5.73638">
        <ele>348</ele>
        <time>2020-03-11T23:58:04+01:00</time>
      </trkpt>
      <trkpt lat="43.24389" lon="5.73632">
        <ele>356</ele>
        <time>2020-03-11T23:58:09+01:00</time>
      </trkpt>
      <trkpt lat="43.24384" lon="5.737">
        <ele>353</ele>
        <time>2020-03-11T23:58:14+01:00</time>
      </trkpt>
      <trkpt lat="43.24362" lon="5.7376">
        <ele>361</ele>
        <time>2020-03-11T23:58:19+01:00</time>
      </trkpt>
      <trkpt lat="43.24348" lon="5.73801">
        <ele>351</ele>
        <time>2020-03-11T23:58:24+01:00</time>
      </trkpt>
      <trkpt lat="43.24325" lon="5.73805">
        <ele>353</ele>
        <time>2020-03-11T23:58:29+01:00</time>
      </trkpt>
      <trkpt lat="43.24297" lon="5.73782">
        <ele>351</ele>
        <time>2020-03-11T23:58:34+01:00</time>
      </trkpt>
      <trkpt lat="43.24279" lon="5.73741">
        <ele>341</ele>
        <time>2020-03-11T23:58:39+01:00</time>
      </trkpt>
      <trkpt lat="43.24259" lon="5.73732">
        <ele>331</ele>
        <time>2020-03-11T23:58:44+01:00</time>
      </trkpt>
      <trkpt lat="43.24229" lon="5.73715">
        <ele>321</ele>
        <time>2020-03-11T23:58:49+01:00</time>
      </trkpt>
      <trkpt lat="43.24231" lon="5.73681">
        <ele>326</ele>
        <time>2020-03-11T23:58:54+01:00</time>
      </trkpt>
      <trkpt lat="43.24281" lon="5.73709">
        <ele>341</ele>
        <time>2020-03-11T23:58:59+01:00</time>
      </trkpt>
      <trkpt lat="43.24312" lon="5.73762">
        <ele>360</ele>
        <time>2020-03-11T23:59:04+01:00</time>
      </trkpt>
      <trkpt lat="43.24326" lon="5.7378">
        <ele>365</ele>
        <time>2020-03-11T23:59:09+01:00</time>
      </trkpt>
      <trkpt lat="43.24357" lon="5.73724">
        <ele>368</ele>
        <time>2020-03-11T23:59:14+01:00</time>
      </trkpt>
      <trkpt lat="43.24357" lon="5.73702">
        <ele>367</ele>
        <time>2020-03-11T23:59:19+01:00</time>
      </trkpt>
      <trkpt lat="43.24339" lon="5.73681">
        <ele>362</ele>
        <time>2020-03-11T23:59:24+01:00</time>
      </trkpt>
      <trkpt lat="43.24282" lon="5.73683">
        <ele>340</ele>
        <time>2020-03-11T23:59:29+01:00</time>
      </trkpt>
      <trkpt lat="43.24248" lon="5.73664">
        <ele>332</ele>
        <time>2020-03-11T23:59:34+01:00</time>
      </trkpt>
      <trkpt lat="43.24231" lon="5.73674">
        <ele>326</ele>
        <time>2020-03-11T23:59:39+01:00</time>
      </trkpt>
      <trkpt lat="43.24217" lon="5.73662">
        <ele>327</ele>
        <time>2020-03-11T23:59:44+01:00</time>
      </trkpt>
      <trkpt lat="43.24225" lon="5.73606">
        <ele>330</ele>
        <time>2020-03-11T23:59:49+01:00</time>
      </trkpt>
      <trkpt lat="43.24221" lon="5.73578">
        <ele>332</ele>
        <time>2020-03-11T23:59:54+01:00</time>
      </trkpt>
      <trkpt lat="43.24234" lon="5.73537">
        <ele>338</ele>
        <time>2020-03-11T23:59:59+01:00</time>
      </trkpt>
      <trkpt lat="43.24228" lon="5.73516">
        <ele>338</ele>
        <time>2020-03-12T00:00:04+01:00</time>
      </trkpt>
      <trkpt lat="43.24207" lon="5.73475">
        <ele>340</ele>
        <time>2020-03-12T00:00:09+01:00</time>
      </trkpt>
      <trkpt lat="43.24207" lon="5.7343">
        <ele>341</ele>
        <time>2020-03-12T00:00:14+01:00</time>
      </trkpt>
      <trkpt lat="43.24223" lon="5.73398">
        <ele>341</ele>
        <time>2020-03-12T00:00:19+01:00</time>
      </trkpt>
      <trkpt lat="43.24229" lon="5.73331">
        <ele>346</ele>
        <time>2020-03-12T00:00:24+01:00</time>
      </trkpt>
      <trkpt lat="43.24229" lon="5.7329">
        <ele>349</ele>
        <time>2020-03-12T00:00:29+01:00</time>
      </trkpt>
      <trkpt lat="43.24228" lon="5.73271">
        <ele>351</ele>
        <time>2020-03-12T00:00:34+01:00</time>
      </trkpt>
      <trkpt lat="43.24201" lon="5.73228">
        <ele>351</ele>
        <time>2020-03-12T00:00:39+01:00</time>
      </trkpt>
      <trkpt lat="43.24187" lon="5.73198">
        <ele>351</ele>
        <time>2020-03-12T00:00:44+01:00</time>
      </trkpt>
      <trkpt lat="43.24195" lon="5.73159">
        <ele>355</ele>
        <time>2020-03-12T00:00:49+01:00</time>
      </trkpt>
      <trkpt lat="43.24221" lon="5.73106">
        <ele>363</ele>
        <time>2020-03-12T00:00:54+01:00</time>
      </trkpt>
      <trkpt lat="43.24221" lon="5.73067">
        <ele>370</ele>
        <time>2020-03-12T00:00:59+01:00</time>
      </trkpt>
      <trkpt lat="43.24254" lon="5.73035">
        <ele>379</ele>
        <time>2020-03-12T00:01:04+01:00</time>
      </trkpt>
      <trkpt lat="43.24289" lon="5.72979">
        <ele>385</ele>
        <time>2020-03-12T00:01:09+01:00</time>
      </trkpt>
      <trkpt lat="43.24329" lon="5.7293">
        <ele>390</ele>
        <time>2020-03-12T00:01:14+01:00</time>
      </trkpt>
      <trkpt lat="43.24345" lon="5.72902">
        <ele>392</ele>
        <time>2020-03-12T00:01:19+01:00</time>
      </trkpt>
      <trkpt lat="43.2435" lon="5.72857">
        <ele>393</ele>
        <time>2020-03-12T00:01:24+01:00</time>
      </trkpt>
      <trkpt lat="43.24364" lon="5.72831">
        <ele>392</ele>
        <time>2020-03-12T00:01:29+01:00</time>
      </trkpt>
      <trkpt lat="43.24407" lon="5.72808">
        <ele>398</ele>
        <time>2020-03-12T00:01:34+01:00</time>
      </trkpt>
      <trkpt lat="43.24431" lon="5.72763">
        <ele>401</ele>
        <time>2020-03-12T00:01:39+01:00</time>
      </trkpt>
      <trkpt lat="43.24458" lon="5.72694">
        <ele>406</ele>
        <time>2020-03-12T00:01:44+01:00</time>
      </trkpt>
      <trkpt lat="43.24481" lon="5.72638">
        <ele>410</ele>
        <time>2020-03-12T00:01:49+01:00</time>
      </trkpt>
      <trkpt lat="43.24479" lon="5.72589">
        <ele>412</ele>
        <time>2020-03-12T00:01:54+01:00</time>
      </trkpt>
      <trkpt lat="43.245" lon="5.72537">
        <ele>417</ele>
        <time>2020-03-12T00:01:59+01:00</time>
      </trkpt>
      <trkpt lat="43.24517" lon="5.72516">
        <ele>419</ele>
        <time>2020-03-12T00:02:04+01:00</time>
      </trkpt>
      <trkpt lat="43.24536" lon="5.72511">
        <ele>420</ele>
        <time>2020-03-12T00:02:09+01:00</time>
      </trkpt>
      <trkpt lat="43.24545" lon="5.72477">
        <ele>421</ele>
        <time>2020-03-12T00:02:14+01:00</time>
      </trkpt>
      <trkpt lat="43.24506" lon="5.72481">
        <ele>422</ele>
        <time>2020-03-12T00:02:19+01:00</time>
      </trkpt>
      <trkpt lat="43.24467" lon="5.72492">
        <ele>423</ele>
        <time>2020-03-12T00:02:24+01:00</time>
      </trkpt>
      <trkpt lat="43.24409" lon="5.72529">
        <ele>424</ele>
        <time>2020-03-12T00:02:29+01:00</time>
      </trkpt>
      <trkpt lat="43.24361" lon="5.72539">
        <ele>423</ele>
        <time>2020-03-12T00:02:34+01:00</time>
      </trkpt>
      <trkpt lat="43.24317" lon="5.72544">
        <ele>421</ele>
        <time>2020-03-12T00:02:39+01:00</time>
      </trkpt>
      <trkpt lat="43.24282" lon="5.72518">
        <ele>418</ele>
        <time>2020-03-12T00:02:44+01:00</time>
      </trkpt>
      <trkpt lat="43.24247" lon="5.72531">
        <ele>414</ele>
        <time>2020-03-12T00:02:49+01:00</time>
      </trkpt>
      <trkpt lat="43.24187" lon="5.72488">
        <ele>410</ele>
        <time>2020-03-12T00:02:54+01:00</time>
      </trkpt>
      <trkpt lat="43.2417" lon="5.72473">
        <ele>410</ele>
        <time>2020-03-12T00:02:59+01:00</time>
      </trkpt>
      <trkpt lat="43.24154" lon="5.72458">
        <ele>410</ele>
        <time>2020-03-12T00:03:04+01:00</time>
      </trkpt>
      <trkpt lat="43.2414" lon="5.72436">
        <ele>410</ele>
        <time>2020-03-12T00:03:09+01:00</time>
      </trkpt>
      <trkpt lat="43.24109" lon="5.72417">
        <ele>409</ele>
        <time>2020-03-12T00:03:14+01:00</time>
      </trkpt>
      <trkpt lat="43.24059" lon="5.72677">
        <ele>398</ele>
        <time>2020-03-12T00:03:19+01:00</time>
      </trkpt>
      <trkpt lat="43.24037" lon="5.72717">
        <ele>400</ele>
        <time>2020-03-12T00:03:24+01:00</time>
      </trkpt>
      <trkpt lat="43.24037" lon="5.7278">
        <ele>401</ele>
        <time>2020-03-12T00:03:29+01:00</time>
      </trkpt>
      <trkpt lat="43.24004" lon="5.72816">
        <ele>403</ele>
        <time>2020-03-12T00:03:34+01:00</time>
      </trkpt>
      <trkpt lat="43.23993" lon="5.72881">
        <ele>399</ele>
        <time>2020-03-12T00:03:39+01:00</time>
      </trkpt>
      <trkpt lat="43.23984" lon="5.72863">
        <ele>400</ele>
        <time>2020-03-12T00:03:44+01:00</time>
      </trkpt>
      <trkpt lat="43.23998" lon="5.72818">
        <ele>403</ele>
        <time>2020-03-12T00:03:49+01:00</time>
      </trkpt>
      <trkpt lat="43.23967" lon="5.72846">
        <ele>402</ele>
        <time>2020-03-12T00:03:54+01:00</time>
      </trkpt>
      <trkpt lat="43.23934" lon="5.72848">
        <ele>405</ele>
        <time>2020-03-12T00:03:59+01:00</time>
      </trkpt>
      <trkpt lat="43.2391" lon="5.72878">
        <ele>406</ele>
        <time>2020-03-12T00:04:04+01:00</time>
      </trkpt>
      <trkpt lat="43.23848" lon="5.72896">
        <ele>409</ele>
        <time>2020-03-12T00:04:09+01:00</time>
      </trkpt>
      <trkpt lat="43.23801" lon="5.72964">
        <ele>407</ele>
        <time>2020-03-12T00:04:14+01:00</time>
      </trkpt>
      <trkpt lat="43.23765" lon="5.73007">
        <ele>406</ele>
        <time>2020-03-12T00:04:19+01:00</time>
      </trkpt>
      <trkpt lat="43.23743" lon="5.73076">
        <ele>404</ele>
        <time>2020-03-12T00:04:24+01:00</time>
      </trkpt>
      <trkpt lat="43.23724" lon="5.73123">
        <ele>400</ele>
        <time>2020-03-12T00:04:29+01:00</time>
      </trkpt>
      <trkpt lat="43.23695" lon="5.73155">
        <ele>393</ele>
        <time>2020-03-12T00:04:34+01:00</time>
      </trkpt>
      <trkpt lat="43.23671" lon="5.73211">
        <ele>389</ele>
        <time>2020-03-12T00:04:39+01:00</time>
      </trkpt>
      <trkpt lat="43.23635" lon="5.73239">
        <ele>381</ele>
        <time>2020-03-12T00:04:44+01:00</time>
      </trkpt>
      <trkpt lat="43.23604" lon="5.73295">
        <ele>375</ele>
        <time>2020-03-12T00:04:49+01:00</time>
      </trkpt>
      <trkpt lat="43.23573" lon="5.73329">
        <ele>369</ele>
        <time>2020-03-12T00:04:54+01:00</time>
      </trkpt>
      <trkpt lat="43.23529" lon="5.73335">
        <ele>362</ele>
        <time>2020-03-12T00:04:59+01:00</time>
      </trkpt>
      <trkpt lat="43.23477" lon="5.73411">
        <ele>356</ele>
        <time>2020-03-12T00:05:04+01:00</time>
      </trkpt>
      <trkpt lat="43.23465" lon="5.73413">
        <ele>354</ele>
        <time>2020-03-12T00:05:09+01:00</time>
      </trkpt>
      <trkpt lat="43.23452" lon="5.73486">
        <ele>344</ele>
        <time>2020-03-12T00:05:14+01:00</time>
      </trkpt>
      <trkpt lat="43.23412" lon="5.73565">
        <ele>328</ele>
        <time>2020-03-12T00:05:19+01:00</time>
      </trkpt>
      <trkpt lat="43.23379" lon="5.73619">
        <ele>319</ele>
        <time>2020-03-12T00:05:24+01:00</time>
      </trkpt>
      <trkpt lat="43.23351" lon="5.73629">
        <ele>315</ele>
        <time>2020-03-12T00:05:29+01:00</time>
      </trkpt>
      <trkpt lat="43.2333" lon="5.7364">
        <ele>311</ele>
        <time>2020-03-12T00:05:34+01:00</time>
      </trkpt>
      <trkpt lat="43.23305" lon="5.73679">
        <ele>303</ele>
        <time>2020-03-12T00:05:39+01:00</time>
      </trkpt>
      <trkpt lat="43.23263" lon="5.73694">
        <ele>299</ele>
        <time>2020-03-12T00:05:44+01:00</time>
      </trkpt>
      <trkpt lat="43.23193" lon="5.7375">
        <ele>286</ele>
        <time>2020-03-12T00:05:49+01:00</time>
      </trkpt>
      <trkpt lat="43.23182" lon="5.73792">
        <ele>279</ele>
        <time>2020-03-12T00:05:54+01:00</time>
      </trkpt>
      <trkpt lat="43.23126" lon="5.73865">
        <ele>266</ele>
        <time>2020-03-12T00:05:59+01:00</time>
      </trkpt>
      <trkpt lat="43.23091" lon="5.7393">
        <ele>255</ele>
        <time>2020-03-12T00:06:04+01:00</time>
      </trkpt>
      <trkpt lat="43.23083" lon="5.73956">
        <ele>251</ele>
        <time>2020-03-12T00:06:09+01:00</time>
      </trkpt>
      <trkpt lat="43.23058" lon="5.73981">
        <ele>246</ele>
        <time>2020-03-12T00:06:14+01:00</time>
      </trkpt>
      <trkpt lat="43.23019" lon="5.74031">
        <ele>237</ele>
        <time>2020-03-12T00:06:19+01:00</time>
      </trkpt>
      <trkpt lat="43.22982" lon="5.74065">
        <ele>232</ele>
        <time>2020-03-12T00:06:24+01:00</time>
      </trkpt>
      <trkpt lat="43.22952" lon="5.74104">
        <ele>228</ele>
        <time>2020-03-12T00:06:29+01:00</time>
      </trkpt>
      <trkpt lat="43.22919" lon="5.74194">
        <ele>219</ele>
        <time>2020-03-12T00:06:34+01:00</time>
      </trkpt>
      <trkpt lat="43.22904" lon="5.74224">
        <ele>215</ele>
        <time>2020-03-12T00:06:39+01:00</time>
      </trkpt>
      <trkpt lat="43.2288" lon="5.74241">
        <ele>211</ele>
        <time>2020-03-12T00:06:44+01:00</time>
      </trkpt>
      <trkpt lat="43.2288" lon="5.74243">
        <ele>211</ele>
        <time>2020-03-12T00:06:49+01:00</time>
      </trkpt>
      <trkpt lat="43.2293" lon="5.74466">
        <ele>208</ele>
        <time>2020-03-12T00:06:54+01:00</time>
      </trkpt>
      <trkpt lat="43.23007" lon="5.74747">
        <ele>200</ele>
        <time>2020-03-12T00:06:59+01:00</time>
      </trkpt>
      <trkpt lat="43.22987" lon="5.74777">
        <ele>200</ele>
        <time>2020-03-12T00:07:04+01:00</time>
      </trkpt>
      <trkpt lat="43.22983" lon="5.74805">
        <ele>200</ele>
        <time>2020-03-12T00:07:09+01:00</time>
      </trkpt>
      <trkpt lat="43.22988" lon="5.74928">
        <ele>197</ele>
        <time>2020-03-12T00:07:14+01:00</time>
      </trkpt>
      <trkpt lat="43.22963" lon="5.74868">
        <ele>196</ele>
        <time>2020-03-12T00:07:19+01:00</time>
      </trkpt>
      <trkpt lat="43.2293" lon="5.74831">
        <ele>193</ele>
        <time>2020-03-12T00:07:24+01:00</time>
      </trkpt>
      <trkpt lat="43.22908" lon="5.7481">
        <ele>191</ele>
        <time>2020-03-12T00:07:29+01:00</time>
      </trkpt>
      <trkpt lat="43.22897" lon="5.74786">
        <ele>190</ele>
        <time>2020-03-12T00:07:34+01:00</time>
      </trkpt>
      <trkpt lat="43.22896" lon="5.7476">
        <ele>190</ele>
        <time>2020-03-12T00:07:39+01:00</time>
      </trkpt>
      <trkpt lat="43.22913" lon="5.74762">
        <ele>190</ele>
        <time>2020-03-12T00:07:44+01:00</time>
      </trkpt>
      <trkpt lat="43.22883" lon="5.74786">
        <ele>190</ele>
        <time>2020-03-12T00:07:49+01:00</time>
      </trkpt>
      <trkpt lat="43.2291" lon="5.74822">
        <ele>192</ele>
        <time>2020-03-12T00:07:54+01:00</time>
      </trkpt>
      <trkpt lat="43.22958" lon="5.74876">
        <ele>195</ele>
        <time>2020-03-12T00:07:59+01:00</time>
      </trkpt>
      <trkpt lat="43.22991" lon="5.74936">
        <ele>197</ele>
        <time>2020-03-12T00:08:04+01:00</time>
      </trkpt>
      <trkpt lat="43.23046" lon="5.75026">
        <ele>200</ele>
        <time>2020-03-12T00:08:09+01:00</time>
      </trkpt>
      <trkpt lat="43.23044" lon="5.75101">
        <ele>196</ele>
        <time>2020-03-12T00:08:14+01:00</time>
      </trkpt>
      <trkpt lat="43.23049" lon="5.75142">
        <ele>195</ele>
        <time>2020-03-12T00:08:19+01:00</time>
      </trkpt>
      <trkpt lat="43.23027" lon="5.75204">
        <ele>189</ele>
        <time>2020-03-12T00:08:24+01:00</time>
      </trkpt>
      <trkpt lat="43.23027" lon="5.75222">
        <ele>187</ele>
        <time>2020-03-12T00:08:29+01:00</time>
      </trkpt>
      <trkpt lat="43.22996" lon="5.75295">
        <ele>181</ele>
        <time>2020-03-12T00:08:34+01:00</time>
      </trkpt>
      <trkpt lat="43.22977" lon="5.75333">
        <ele>180</ele>
        <time>2020-03-12T00:08:39+01:00</time>
      </trkpt>
      <trkpt lat="43.22976" lon="5.75398">
        <ele>180</ele>
        <time>2020-03-12T00:08:44+01:00</time>
      </trkpt>
      <trkpt lat="43.23093" lon="5.75325">
        <ele>182</ele>
        <time>2020-03-12T00:08:49+01:00</time>
      </trkpt>
      <trkpt lat="43.23138" lon="5.75292">
        <ele>181</ele>
        <time>2020-03-12T00:08:54+01:00</time>
      </trkpt>
      <trkpt lat="43.23156" lon="5.75272">
        <ele>182</ele>
        <time>2020-03-12T00:08:59+01:00</time>
      </trkpt>
      <trkpt lat="43.23145" lon="5.75274">
        <ele>181</ele>
        <time>2020-03-12T00:09:04+01:00</time>
      </trkpt>
      <trkpt lat="43.23145" lon="5.75273">
        <ele>181</ele>
        <time>2020-03-12T00:09:09+01:00</time>
      </trkpt>
    </trkseg>
  </trk>
</gpx>